sensor_id;sensor_type;location;lat;lon;timestamp;P1;durP1;ratioP1;P2;durP2;ratioP2
9034;SDS011;4552;43.422;24.592;2023-12-14T00:57:42;22.23;;;13.53;;
9034;SDS011;4552;43.422;24.592;2023-12-14T01:00:10;21.23;;;13.13;;
9034;SDS011;4552;43.422;24.592;2023-12-14T01:02:38;25.87;;;13.73;;
9034;SDS011;4552;43.422;24.592;2023-12-14T01:05:05;22.70;;;13.27;;
9034;SDS011;4552;43.422;24.592;2023-12-14T01:07:51;23.70;;;14.23;;
9034;SDS011;4552;43.422;24.592;2023-12-14T01:10:51;23.77;;;13.83;;
9034;SDS011;4552;43.422;24.592;2023-12-14T01:13:39;23.50;;;13.73;;
9034;SDS011;4552;43.422;24.592;2023-12-14T01:16:07;27.83;;;15.07;;
9034;SDS011;4552;43.422;24.592;2023-12-14T01:18:35;25.43;;;14.83;;
9034;SDS011;4552;43.422;24.592;2023-12-14T01:21:02;30.90;;;15.10;;
9034;SDS011;4552;43.422;24.592;2023-12-14T02:40:05;20.93;;;12.57;;
9034;SDS011;4552;43.422;24.592;2023-12-14T02:42:33;18.77;;;11.53;;
9034;SDS011;4552;43.422;24.592;2023-12-14T02:45:00;22.33;;;12.47;;
9034;SDS011;4552;43.422;24.592;2023-12-14T02:47:27;19.60;;;12.70;;
9034;SDS011;4552;43.422;24.592;2023-12-14T02:49:55;22.43;;;13.17;;
9034;SDS011;4552;43.422;24.592;2023-12-14T02:52:22;20.63;;;12.20;;
9034;SDS011;4552;43.422;24.592;2023-12-14T02:55:07;19.53;;;12.40;;
9034;SDS011;4552;43.422;24.592;2023-12-14T02:57:34;21.17;;;13.30;;
9034;SDS011;4552;43.422;24.592;2023-12-14T03:00:01;22.07;;;13.33;;
9034;SDS011;4552;43.422;24.592;2023-12-14T03:02:41;23.20;;;13.30;;
9034;SDS011;4552;43.422;24.592;2023-12-14T03:05:22;19.70;;;11.80;;
9034;SDS011;4552;43.422;24.592;2023-12-14T03:48:15;26.23;;;16.23;;
9034;SDS011;4552;43.422;24.592;2023-12-14T03:50:42;24.87;;;14.77;;
9034;SDS011;4552;43.422;24.592;2023-12-14T03:53:23;23.00;;;14.67;;
9034;SDS011;4552;43.422;24.592;2023-12-14T03:55:55;27.40;;;13.97;;
9034;SDS011;4552;43.422;24.592;2023-12-14T03:58:22;21.33;;;13.50;;
9034;SDS011;4552;43.422;24.592;2023-12-14T04:00:49;20.50;;;12.83;;
9034;SDS011;4552;43.422;24.592;2023-12-14T04:06:04;25.60;;;15.37;;
9034;SDS011;4552;43.422;24.592;2023-12-14T04:08:31;30.97;;;16.70;;
9034;SDS011;4552;43.422;24.592;2023-12-14T04:10:57;29.93;;;15.73;;
9034;SDS011;4552;43.422;24.592;2023-12-14T04:13:42;22.80;;;14.67;;
9034;SDS011;4552;43.422;24.592;2023-12-14T04:16:09;25.77;;;14.80;;
9034;SDS011;4552;43.422;24.592;2023-12-14T04:18:38;37.40;;;17.60;;
9034;SDS011;4552;43.422;24.592;2023-12-14T04:21:06;28.97;;;16.50;;
9034;SDS011;4552;43.422;24.592;2023-12-14T04:50:30;28.43;;;17.43;;
9034;SDS011;4552;43.422;24.592;2023-12-14T04:53:03;17.73;;;11.93;;
9034;SDS011;4552;43.422;24.592;2023-12-14T04:55:30;19.97;;;11.77;;
9034;SDS011;4552;43.422;24.592;2023-12-14T04:58:03;24.63;;;13.17;;
9034;SDS011;4552;43.422;24.592;2023-12-14T05:00:30;31.40;;;14.97;;
9034;SDS011;4552;43.422;24.592;2023-12-14T05:02:58;26.63;;;13.70;;
9034;SDS011;4552;43.422;24.592;2023-12-14T05:05:25;23.23;;;13.67;;
9034;SDS011;4552;43.422;24.592;2023-12-14T05:07:53;21.07;;;13.00;;
9034;SDS011;4552;43.422;24.592;2023-12-14T05:10:26;24.00;;;13.90;;
9034;SDS011;4552;43.422;24.592;2023-12-14T05:12:52;24.63;;;13.47;;
9034;SDS011;4552;43.422;24.592;2023-12-14T05:15:19;24.40;;;15.68;;
9034;SDS011;4552;43.422;24.592;2023-12-14T05:17:46;22.43;;;12.93;;
9034;SDS011;4552;43.422;24.592;2023-12-14T05:20:13;22.57;;;12.47;;
9034;SDS011;4552;43.422;24.592;2023-12-14T05:22:40;19.47;;;11.63;;
9034;SDS011;4552;43.422;24.592;2023-12-14T05:25:09;21.63;;;11.80;;
9034;SDS011;4552;43.422;24.592;2023-12-14T05:27:36;23.13;;;12.37;;
9034;SDS011;4552;43.422;24.592;2023-12-14T05:30:07;20.70;;;11.80;;
9034;SDS011;4552;43.422;24.592;2023-12-14T05:32:36;22.40;;;11.60;;
9034;SDS011;4552;43.422;24.592;2023-12-14T05:35:03;19.10;;;11.27;;
9034;SDS011;4552;43.422;24.592;2023-12-14T05:37:38;22.73;;;14.40;;
9034;SDS011;4552;43.422;24.592;2023-12-14T05:40:12;19.23;;;10.53;;
9034;SDS011;4552;43.422;24.592;2023-12-14T05:42:54;19.60;;;11.13;;
9034;SDS011;4552;43.422;24.592;2023-12-14T05:45:21;24.50;;;12.70;;
9034;SDS011;4552;43.422;24.592;2023-12-14T05:47:48;24.63;;;11.33;;
9034;SDS011;4552;43.422;24.592;2023-12-14T05:50:16;21.67;;;11.10;;
9034;SDS011;4552;43.422;24.592;2023-12-14T05:52:57;25.07;;;12.03;;
9034;SDS011;4552;43.422;24.592;2023-12-14T05:55:25;21.63;;;10.43;;
9034;SDS011;4552;43.422;24.592;2023-12-14T05:57:52;19.83;;;11.33;;
9034;SDS011;4552;43.422;24.592;2023-12-14T06:00:40;19.17;;;10.27;;
9034;SDS011;4552;43.422;24.592;2023-12-14T06:03:07;20.50;;;10.60;;
9034;SDS011;4552;43.422;24.592;2023-12-14T06:05:34;21.00;;;11.13;;
9034;SDS011;4552;43.422;24.592;2023-12-14T06:21:31;20.03;;;11.53;;
9034;SDS011;4552;43.422;24.592;2023-12-14T06:58:58;14.50;;;9.50;;
9034;SDS011;4552;43.422;24.592;2023-12-14T07:01:44;20.90;;;11.23;;
9034;SDS011;4552;43.422;24.592;2023-12-14T07:04:16;19.13;;;10.50;;
9034;SDS011;4552;43.422;24.592;2023-12-14T07:06:49;22.67;;;11.10;;
9034;SDS011;4552;43.422;24.592;2023-12-14T08:50:16;33.13;;;13.10;;
9034;SDS011;4552;43.422;24.592;2023-12-14T08:52:43;23.27;;;11.87;;
9034;SDS011;4552;43.422;24.592;2023-12-14T08:55:10;29.47;;;12.63;;
9034;SDS011;4552;43.422;24.592;2023-12-14T08:57:49;30.53;;;14.20;;
9034;SDS011;4552;43.422;24.592;2023-12-14T09:00:34;30.83;;;13.53;;
9034;SDS011;4552;43.422;24.592;2023-12-14T09:03:01;27.70;;;12.50;;
9034;SDS011;4552;43.422;24.592;2023-12-14T09:08:30;26.87;;;13.43;;
9034;SDS011;4552;43.422;24.592;2023-12-14T09:11:10;25.30;;;12.80;;
9034;SDS011;4552;43.422;24.592;2023-12-14T09:13:38;21.13;;;11.87;;
9034;SDS011;4552;43.422;24.592;2023-12-14T09:16:05;22.90;;;12.07;;
9034;SDS011;4552;43.422;24.592;2023-12-14T09:18:32;21.90;;;12.07;;
9034;SDS011;4552;43.422;24.592;2023-12-14T09:21:01;21.63;;;12.30;;
9034;SDS011;4552;43.422;24.592;2023-12-14T09:23:28;26.97;;;13.00;;
9034;SDS011;4552;43.422;24.592;2023-12-14T09:25:57;25.57;;;12.20;;
9034;SDS011;4552;43.422;24.592;2023-12-14T09:28:24;24.57;;;11.63;;
9034;SDS011;4552;43.422;24.592;2023-12-14T09:30:51;25.30;;;12.87;;
9034;SDS011;4552;43.422;24.592;2023-12-14T09:33:18;24.53;;;11.93;;
9034;SDS011;4552;43.422;24.592;2023-12-14T09:35:46;25.30;;;12.33;;
9034;SDS011;4552;43.422;24.592;2023-12-14T09:38:29;16.10;;;10.03;;
9034;SDS011;4552;43.422;24.592;2023-12-14T09:40:56;15.70;;;10.27;;
9034;SDS011;4552;43.422;24.592;2023-12-14T09:43:23;16.67;;;9.67;;
9034;SDS011;4552;43.422;24.592;2023-12-14T09:45:50;15.70;;;9.87;;
9034;SDS011;4552;43.422;24.592;2023-12-14T09:48:18;18.13;;;10.47;;
9034;SDS011;4552;43.422;24.592;2023-12-14T09:50:46;16.50;;;8.70;;
9034;SDS011;4552;43.422;24.592;2023-12-14T09:53:14;12.87;;;8.23;;
9034;SDS011;4552;43.422;24.592;2023-12-14T09:55:42;12.67;;;7.83;;
9034;SDS011;4552;43.422;24.592;2023-12-14T09:58:09;12.73;;;7.40;;
9034;SDS011;4552;43.422;24.592;2023-12-14T10:00:47;13.57;;;7.07;;
9034;SDS011;4552;43.422;24.592;2023-12-14T15:15:41;2.07;;;1.80;;
9034;SDS011;4552;43.422;24.592;2023-12-14T15:18:08;4.10;;;1.70;;
9034;SDS011;4552;43.422;24.592;2023-12-14T15:20:37;3.37;;;2.13;;
9034;SDS011;4552;43.422;24.592;2023-12-14T15:23:05;2.00;;;1.80;;
9034;SDS011;4552;43.422;24.592;2023-12-14T15:25:33;1.70;;;1.50;;
9034;SDS011;4552;43.422;24.592;2023-12-14T15:28:00;2.33;;;1.70;;
9034;SDS011;4552;43.422;24.592;2023-12-14T15:30:29;2.10;;;1.90;;
9034;SDS011;4552;43.422;24.592;2023-12-14T15:32:56;2.20;;;1.90;;
9034;SDS011;4552;43.422;24.592;2023-12-14T15:35:23;9.73;;;6.97;;
9034;SDS011;4552;43.422;24.592;2023-12-14T15:37:50;1.80;;;1.43;;
9034;SDS011;4552;43.422;24.592;2023-12-14T15:40:17;2.10;;;1.70;;
9034;SDS011;4552;43.422;24.592;2023-12-14T15:42:44;2.93;;;1.77;;
9034;SDS011;4552;43.422;24.592;2023-12-14T15:45:32;3.27;;;1.60;;
9034;SDS011;4552;43.422;24.592;2023-12-14T15:47:59;1.83;;;1.70;;
9034;SDS011;4552;43.422;24.592;2023-12-14T15:50:26;2.50;;;2.07;;
9034;SDS011;4552;43.422;24.592;2023-12-14T15:52:53;3.57;;;1.97;;
9034;SDS011;4552;43.422;24.592;2023-12-14T15:55:21;1.87;;;1.70;;
9034;SDS011;4552;43.422;24.592;2023-12-14T15:58:04;2.30;;;1.50;;
9034;SDS011;4552;43.422;24.592;2023-12-14T16:00:37;1.73;;;1.60;;
9034;SDS011;4552;43.422;24.592;2023-12-14T16:03:04;1.87;;;1.60;;
9034;SDS011;4552;43.422;24.592;2023-12-14T16:05:34;1.63;;;1.53;;
9034;SDS011;4552;43.422;24.592;2023-12-14T16:08:03;1.67;;;1.57;;
9034;SDS011;4552;43.422;24.592;2023-12-14T16:10:44;1.63;;;1.53;;
9034;SDS011;4552;43.422;24.592;2023-12-14T17:00:21;1.60;;;1.50;;
9034;SDS011;4552;43.422;24.592;2023-12-14T17:02:49;1.40;;;1.30;;
9034;SDS011;4552;43.422;24.592;2023-12-14T17:05:16;1.50;;;1.40;;
9034;SDS011;4552;43.422;24.592;2023-12-14T17:07:43;1.60;;;1.50;;
9034;SDS011;4552;43.422;24.592;2023-12-14T17:10:10;1.23;;;1.13;;
9034;SDS011;4552;43.422;24.592;2023-12-14T17:12:37;1.97;;;1.60;;
9034;SDS011;4552;43.422;24.592;2023-12-14T17:15:05;1.50;;;1.40;;
9034;SDS011;4552;43.422;24.592;2023-12-14T17:17:46;1.40;;;1.40;;
9034;SDS011;4552;43.422;24.592;2023-12-14T20:32:00;1.63;;;1.53;;
9034;SDS011;4552;43.422;24.592;2023-12-14T20:34:28;1.47;;;1.37;;
9034;SDS011;4552;43.422;24.592;2023-12-14T20:37:10;1.27;;;1.27;;
9034;SDS011;4552;43.422;24.592;2023-12-14T20:39:36;1.10;;;1.10;;
9034;SDS011;4552;43.422;24.592;2023-12-14T20:42:04;1.40;;;1.30;;
9034;SDS011;4552;43.422;24.592;2023-12-14T21:03:43;1.60;;;1.50;;
9034;SDS011;4552;43.422;24.592;2023-12-14T21:10:01;1.57;;;1.47;;
9034;SDS011;4552;43.422;24.592;2023-12-14T21:12:29;1.77;;;1.57;;
9034;SDS011;4552;43.422;24.592;2023-12-14T21:14:56;1.40;;;1.30;;
9034;SDS011;4552;43.422;24.592;2023-12-14T21:20:12;1.10;;;1.10;;
9034;SDS011;4552;43.422;24.592;2023-12-14T21:22:39;1.43;;;1.33;;
9034;SDS011;4552;43.422;24.592;2023-12-14T21:25:06;1.50;;;1.40;;
9034;SDS011;4552;43.422;24.592;2023-12-14T21:27:58;1.43;;;1.33;;
9034;SDS011;4552;43.422;24.592;2023-12-14T21:30:39;1.73;;;1.63;;
9034;SDS011;4552;43.422;24.592;2023-12-14T21:33:07;1.50;;;1.40;;
9034;SDS011;4552;43.422;24.592;2023-12-14T22:19:19;1.40;;;1.30;;
9034;SDS011;4552;43.422;24.592;2023-12-14T23:03:52;1.77;;;1.67;;
9034;SDS011;4552;43.422;24.592;2023-12-14T23:06:19;3.73;;;1.93;;
9034;SDS011;4552;43.422;24.592;2023-12-14T23:08:59;1.60;;;1.50;;
9034;SDS011;4552;43.422;24.592;2023-12-14T23:11:27;1.97;;;1.80;;
9034;SDS011;4552;43.422;24.592;2023-12-14T23:13:54;1.63;;;1.53;;
9034;SDS011;4552;43.422;24.592;2023-12-14T23:16:22;1.93;;;1.73;;
9034;SDS011;4552;43.422;24.592;2023-12-14T23:18:49;1.80;;;1.70;;
9034;SDS011;4552;43.422;24.592;2023-12-14T23:24:15;1.40;;;1.30;;
9034;SDS011;4552;43.422;24.592;2023-12-14T23:26:45;1.60;;;1.50;;
9034;SDS011;4552;43.422;24.592;2023-12-14T23:29:30;1.80;;;1.70;;
9034;SDS011;4552;43.422;24.592;2023-12-14T23:31:57;1.60;;;1.50;;
9034;SDS011;4552;43.422;24.592;2023-12-14T23:34:24;1.73;;;1.63;;
9034;SDS011;4552;43.422;24.592;2023-12-14T23:37:06;1.87;;;1.77;;
9034;SDS011;4552;43.422;24.592;2023-12-14T23:39:33;2.00;;;1.80;;
9034;SDS011;4552;43.422;24.592;2023-12-14T23:41:59;2.07;;;1.90;;
9034;SDS011;4552;43.422;24.592;2023-12-14T23:44:27;1.77;;;1.67;;
9034;SDS011;4552;43.422;24.592;2023-12-14T23:46:54;1.80;;;1.67;;
9034;SDS011;4552;43.422;24.592;2023-12-14T23:49:21;2.53;;;2.03;;
9034;SDS011;4552;43.422;24.592;2023-12-14T23:51:48;2.00;;;1.80;;
9034;SDS011;4552;43.422;24.592;2023-12-14T23:54:17;1.50;;;1.40;;
9034;SDS011;4552;43.422;24.592;2023-12-14T23:56:44;3.10;;;2.27;;
9034;SDS011;4552;43.422;24.592;2023-12-14T23:59:11;2.20;;;2.00;;
